sensor_id;sensor_type;location;lat;lon;timestamp;temperature;humidity
21090;DHT22;10703;51.020;6.128;2023-10-08T00:02:45;17.20;99.90
21090;DHT22;10703;51.020;6.128;2023-10-08T00:05:12;17.10;99.90
21090;DHT22;10703;51.020;6.128;2023-10-08T00:07:42;17.00;99.90
21090;DHT22;10703;51.020;6.128;2023-10-08T00:10:09;17.00;99.90
21090;DHT22;10703;51.020;6.128;2023-10-08T00:12:36;17.00;99.90
21090;DHT22;10703;51.020;6.128;2023-10-08T00:15:03;17.00;99.90
21090;DHT22;10703;51.020;6.128;2023-10-08T00:17:33;16.90;99.90
21090;DHT22;10703;51.020;6.128;2023-10-08T00:20:00;16.80;99.90
21090;DHT22;10703;51.020;6.128;2023-10-08T00:22:27;16.90;99.90
21090;DHT22;10703;51.020;6.128;2023-10-08T00:24:55;16.90;99.90
21090;DHT22;10703;51.020;6.128;2023-10-08T00:27:24;16.90;99.90
21090;DHT22;10703;51.020;6.128;2023-10-08T00:29:50;16.80;99.90
21090;DHT22;10703;51.020;6.128;2023-10-08T00:32:17;16.80;99.90
21090;DHT22;10703;51.020;6.128;2023-10-08T00:34:44;16.80;99.90
21090;DHT22;10703;51.020;6.128;2023-10-08T00:37:11;16.60;99.90
21090;DHT22;10703;51.020;6.128;2023-10-08T00:39:41;16.60;99.90
21090;DHT22;10703;51.020;6.128;2023-10-08T00:42:08;16.60;99.90
21090;DHT22;10703;51.020;6.128;2023-10-08T00:44:36;16.70;99.90
21090;DHT22;10703;51.020;6.128;2023-10-08T00:47:24;16.60;99.90
21090;DHT22;10703;51.020;6.128;2023-10-08T00:49:53;16.60;99.90
21090;DHT22;10703;51.020;6.128;2023-10-08T00:52:35;16.70;99.90
21090;DHT22;10703;51.020;6.128;2023-10-08T00:55:11;16.70;99.90
21090;DHT22;10703;51.020;6.128;2023-10-08T00:57:49;16.70;99.90
21090;DHT22;10703;51.020;6.128;2023-10-08T01:00:19;16.60;99.90
21090;DHT22;10703;51.020;6.128;2023-10-08T01:02:49;16.50;99.90
21090;DHT22;10703;51.020;6.128;2023-10-08T01:05:21;16.50;99.90
21090;DHT22;10703;51.020;6.128;2023-10-08T01:08:03;16.50;99.90
21090;DHT22;10703;51.020;6.128;2023-10-08T01:10:33;16.50;99.90
21090;DHT22;10703;51.020;6.128;2023-10-08T01:12:59;16.40;99.90
21090;DHT22;10703;51.020;6.128;2023-10-08T01:15:37;16.20;99.90
21090;DHT22;10703;51.020;6.128;2023-10-08T01:18:04;16.10;99.90
21090;DHT22;10703;51.020;6.128;2023-10-08T01:20:35;16.20;99.90
21090;DHT22;10703;51.020;6.128;2023-10-08T01:23:15;16.10;99.90
21090;DHT22;10703;51.020;6.128;2023-10-08T01:25:49;16.00;99.90
21090;DHT22;10703;51.020;6.128;2023-10-08T01:28:24;16.00;99.90
21090;DHT22;10703;51.020;6.128;2023-10-08T01:30:56;16.10;99.90
21090;DHT22;10703;51.020;6.128;2023-10-08T01:33:31;16.00;99.90
21090;DHT22;10703;51.020;6.128;2023-10-08T01:35:58;16.00;99.90
21090;DHT22;10703;51.020;6.128;2023-10-08T01:38:31;16.00;99.90
21090;DHT22;10703;51.020;6.128;2023-10-08T01:40:59;16.00;99.90
21090;DHT22;10703;51.020;6.128;2023-10-08T01:43:30;15.80;99.90
21090;DHT22;10703;51.020;6.128;2023-10-08T01:45:57;15.80;99.90
21090;DHT22;10703;51.020;6.128;2023-10-08T01:48:24;15.80;99.90
21090;DHT22;10703;51.020;6.128;2023-10-08T01:50:55;15.70;99.90
21090;DHT22;10703;51.020;6.128;2023-10-08T01:53:25;15.70;99.90
21090;DHT22;10703;51.020;6.128;2023-10-08T01:55:53;15.70;99.90
21090;DHT22;10703;51.020;6.128;2023-10-08T01:58:21;15.80;99.90
21090;DHT22;10703;51.020;6.128;2023-10-08T02:00:50;15.70;99.90
21090;DHT22;10703;51.020;6.128;2023-10-08T02:03:18;15.70;99.90
21090;DHT22;10703;51.020;6.128;2023-10-08T02:05:46;15.80;99.90
21090;DHT22;10703;51.020;6.128;2023-10-08T02:08:14;15.90;99.90
21090;DHT22;10703;51.020;6.128;2023-10-08T02:10:42;15.90;99.90
21090;DHT22;10703;51.020;6.128;2023-10-08T02:13:10;15.70;99.90
21090;DHT22;10703;51.020;6.128;2023-10-08T02:15:40;15.70;99.90
21090;DHT22;10703;51.020;6.128;2023-10-08T02:18:07;15.90;99.90
21090;DHT22;10703;51.020;6.128;2023-10-08T02:20:33;15.90;99.90
21090;DHT22;10703;51.020;6.128;2023-10-08T02:23:00;15.80;99.90
21090;DHT22;10703;51.020;6.128;2023-10-08T02:25:27;15.80;99.90
21090;DHT22;10703;51.020;6.128;2023-10-08T02:27:54;15.80;99.90
21090;DHT22;10703;51.020;6.128;2023-10-08T02:30:21;15.70;99.90
21090;DHT22;10703;51.020;6.128;2023-10-08T02:32:47;15.60;99.90
21090;DHT22;10703;51.020;6.128;2023-10-08T02:35:16;15.70;99.90
21090;DHT22;10703;51.020;6.128;2023-10-08T02:37:42;15.70;99.90
21090;DHT22;10703;51.020;6.128;2023-10-08T02:40:12;15.90;99.90
21090;DHT22;10703;51.020;6.128;2023-10-08T02:42:48;15.90;99.90
21090;DHT22;10703;51.020;6.128;2023-10-08T02:45:15;15.80;99.90
21090;DHT22;10703;51.020;6.128;2023-10-08T02:47:43;15.90;99.90
21090;DHT22;10703;51.020;6.128;2023-10-08T02:50:13;16.00;99.90
21090;DHT22;10703;51.020;6.128;2023-10-08T02:52:44;15.90;99.90
21090;DHT22;10703;51.020;6.128;2023-10-08T02:55:11;15.80;99.90
21090;DHT22;10703;51.020;6.128;2023-10-08T02:57:49;15.90;99.90
21090;DHT22;10703;51.020;6.128;2023-10-08T03:00:17;16.00;99.90
21090;DHT22;10703;51.020;6.128;2023-10-08T03:02:47;16.10;99.90
21090;DHT22;10703;51.020;6.128;2023-10-08T03:05:13;16.20;99.90
21090;DHT22;10703;51.020;6.128;2023-10-08T03:07:43;16.10;99.90
21090;DHT22;10703;51.020;6.128;2023-10-08T03:10:10;16.10;99.90
21090;DHT22;10703;51.020;6.128;2023-10-08T03:12:46;16.00;99.90
21090;DHT22;10703;51.020;6.128;2023-10-08T03:15:14;16.10;99.90
21090;DHT22;10703;51.020;6.128;2023-10-08T03:17:55;16.00;99.90
21090;DHT22;10703;51.020;6.128;2023-10-08T03:20:24;16.00;99.90
21090;DHT22;10703;51.020;6.128;2023-10-08T03:23:11;15.90;99.90
21090;DHT22;10703;51.020;6.128;2023-10-08T03:25:55;16.00;99.90
21090;DHT22;10703;51.020;6.128;2023-10-08T03:28:42;15.90;99.90
21090;DHT22;10703;51.020;6.128;2023-10-08T03:31:09;15.90;99.90
21090;DHT22;10703;51.020;6.128;2023-10-08T03:33:43;15.80;99.90
21090;DHT22;10703;51.020;6.128;2023-10-08T03:36:15;15.70;99.90
21090;DHT22;10703;51.020;6.128;2023-10-08T03:38:48;15.70;99.90
21090;DHT22;10703;51.020;6.128;2023-10-08T03:41:22;15.90;99.90
21090;DHT22;10703;51.020;6.128;2023-10-08T03:43:55;15.80;99.90
21090;DHT22;10703;51.020;6.128;2023-10-08T03:46:43;15.70;99.90
21090;DHT22;10703;51.020;6.128;2023-10-08T03:49:10;15.80;99.90
21090;DHT22;10703;51.020;6.128;2023-10-08T03:51:49;16.00;99.90
21090;DHT22;10703;51.020;6.128;2023-10-08T03:54:22;15.70;99.90
21090;DHT22;10703;51.020;6.128;2023-10-08T03:57:15;15.80;99.90
21090;DHT22;10703;51.020;6.128;2023-10-08T03:59:55;15.80;99.90
21090;DHT22;10703;51.020;6.128;2023-10-08T04:02:25;15.80;99.90
21090;DHT22;10703;51.020;6.128;2023-10-08T04:05:18;15.80;99.90
21090;DHT22;10703;51.020;6.128;2023-10-08T04:07:46;15.80;99.90
21090;DHT22;10703;51.020;6.128;2023-10-08T04:10:34;15.70;99.90
21090;DHT22;10703;51.020;6.128;2023-10-08T04:13:24;15.50;99.90
21090;DHT22;10703;51.020;6.128;2023-10-08T04:15:51;15.50;99.90
21090;DHT22;10703;51.020;6.128;2023-10-08T04:18:17;15.60;99.90
21090;DHT22;10703;51.020;6.128;2023-10-08T04:20:47;15.30;99.90
21090;DHT22;10703;51.020;6.128;2023-10-08T04:23:27;15.60;99.90
21090;DHT22;10703;51.020;6.128;2023-10-08T04:25:55;15.50;99.90
21090;DHT22;10703;51.020;6.128;2023-10-08T04:28:22;15.50;99.90
21090;DHT22;10703;51.020;6.128;2023-10-08T04:30:54;15.10;99.90
21090;DHT22;10703;51.020;6.128;2023-10-08T04:33:28;15.40;99.90
21090;DHT22;10703;51.020;6.128;2023-10-08T04:36:00;15.40;99.90
21090;DHT22;10703;51.020;6.128;2023-10-08T04:38:28;15.40;99.90
21090;DHT22;10703;51.020;6.128;2023-10-08T04:40:56;15.50;99.90
21090;DHT22;10703;51.020;6.128;2023-10-08T04:43:28;17.60;99.90
21090;DHT22;10703;51.020;6.128;2023-10-08T04:45:57;15.50;99.90
21090;DHT22;10703;51.020;6.128;2023-10-08T04:48:25;15.40;99.90
21090;DHT22;10703;51.020;6.128;2023-10-08T04:50:53;15.60;99.90
21090;DHT22;10703;51.020;6.128;2023-10-08T04:53:26;15.40;99.90
21090;DHT22;10703;51.020;6.128;2023-10-08T04:56:05;15.20;99.90
21090;DHT22;10703;51.020;6.128;2023-10-08T04:58:34;15.40;99.90
21090;DHT22;10703;51.020;6.128;2023-10-08T05:01:04;15.40;99.90
21090;DHT22;10703;51.020;6.128;2023-10-08T05:03:51;15.40;99.90
21090;DHT22;10703;51.020;6.128;2023-10-08T05:06:29;15.40;99.90
21090;DHT22;10703;51.020;6.128;2023-10-08T05:09:05;15.30;99.90
21090;DHT22;10703;51.020;6.128;2023-10-08T05:11:50;15.20;99.90
21090;DHT22;10703;51.020;6.128;2023-10-08T05:14:21;15.30;99.90
21090;DHT22;10703;51.020;6.128;2023-10-08T05:17:03;15.30;99.90
21090;DHT22;10703;51.020;6.128;2023-10-08T05:19:39;15.30;99.90
21090;DHT22;10703;51.020;6.128;2023-10-08T05:22:08;15.20;99.90
21090;DHT22;10703;51.020;6.128;2023-10-08T05:24:53;15.20;99.90
21090;DHT22;10703;51.020;6.128;2023-10-08T05:27:37;15.20;99.90
21090;DHT22;10703;51.020;6.128;2023-10-08T05:30:10;14.50;99.90
21090;DHT22;10703;51.020;6.128;2023-10-08T05:32:45;15.00;99.90
21090;DHT22;10703;51.020;6.128;2023-10-08T05:35:30;14.90;99.90
21090;DHT22;10703;51.020;6.128;2023-10-08T05:38:14;14.90;99.90
21090;DHT22;10703;51.020;6.128;2023-10-08T05:40:51;14.90;99.90
21090;DHT22;10703;51.020;6.128;2023-10-08T05:43:41;14.70;99.90
21090;DHT22;10703;51.020;6.128;2023-10-08T05:46:15;15.00;99.90
21090;DHT22;10703;51.020;6.128;2023-10-08T05:48:56;14.60;99.90
21090;DHT22;10703;51.020;6.128;2023-10-08T05:51:37;14.40;99.90
21090;DHT22;10703;51.020;6.128;2023-10-08T05:54:24;14.50;99.90
21090;DHT22;10703;51.020;6.128;2023-10-08T05:57:04;14.50;99.90
21090;DHT22;10703;51.020;6.128;2023-10-08T05:59:51;14.40;99.90
21090;DHT22;10703;51.020;6.128;2023-10-08T06:02:31;15.10;99.90
21090;DHT22;10703;51.020;6.128;2023-10-08T06:10:30;14.40;99.90
21090;DHT22;10703;51.020;6.128;2023-10-08T06:13:00;14.40;99.90
21090;DHT22;10703;51.020;6.128;2023-10-08T06:15:41;14.40;99.90
21090;DHT22;10703;51.020;6.128;2023-10-08T06:18:30;14.30;99.90
21090;DHT22;10703;51.020;6.128;2023-10-08T06:21:03;14.40;99.90
21090;DHT22;10703;51.020;6.128;2023-10-08T06:23:40;14.40;99.90
21090;DHT22;10703;51.020;6.128;2023-10-08T06:26:08;14.50;99.90
21090;DHT22;10703;51.020;6.128;2023-10-08T06:28:38;14.50;99.90
21090;DHT22;10703;51.020;6.128;2023-10-08T06:31:06;14.50;99.90
21090;DHT22;10703;51.020;6.128;2023-10-08T06:33:33;14.60;99.90
21090;DHT22;10703;51.020;6.128;2023-10-08T06:36:01;14.70;99.90
21090;DHT22;10703;51.020;6.128;2023-10-08T06:38:29;15.50;99.90
21090;DHT22;10703;51.020;6.128;2023-10-08T06:41:03;15.00;99.90
21090;DHT22;10703;51.020;6.128;2023-10-08T06:43:41;14.80;99.90
21090;DHT22;10703;51.020;6.128;2023-10-08T06:46:15;14.80;99.90
21090;DHT22;10703;51.020;6.128;2023-10-08T06:48:46;14.80;99.90
21090;DHT22;10703;51.020;6.128;2023-10-08T06:51:13;14.90;99.90
21090;DHT22;10703;51.020;6.128;2023-10-08T06:53:47;15.00;99.90
21090;DHT22;10703;51.020;6.128;2023-10-08T06:56:15;15.00;99.90
21090;DHT22;10703;51.020;6.128;2023-10-08T06:58:42;15.10;99.90
21090;DHT22;10703;51.020;6.128;2023-10-08T07:01:19;14.80;99.90
21090;DHT22;10703;51.020;6.128;2023-10-08T07:03:52;15.10;99.90
21090;DHT22;10703;51.020;6.128;2023-10-08T07:06:23;15.10;99.90
21090;DHT22;10703;51.020;6.128;2023-10-08T07:08:52;15.20;99.90
21090;DHT22;10703;51.020;6.128;2023-10-08T07:11:22;15.40;99.90
21090;DHT22;10703;51.020;6.128;2023-10-08T07:13:50;15.40;99.90
21090;DHT22;10703;51.020;6.128;2023-10-08T07:16:18;15.40;99.90
21090;DHT22;10703;51.020;6.128;2023-10-08T07:18:45;15.40;99.90
21090;DHT22;10703;51.020;6.128;2023-10-08T07:21:19;15.20;99.90
21090;DHT22;10703;51.020;6.128;2023-10-08T07:23:50;15.50;99.90
21090;DHT22;10703;51.020;6.128;2023-10-08T07:26:25;15.40;99.90
21090;DHT22;10703;51.020;6.128;2023-10-08T07:28:55;15.50;99.90
21090;DHT22;10703;51.020;6.128;2023-10-08T07:31:23;15.20;99.90
21090;DHT22;10703;51.020;6.128;2023-10-08T07:33:56;15.50;99.90
21090;DHT22;10703;51.020;6.128;2023-10-08T07:36:24;15.50;99.90
21090;DHT22;10703;51.020;6.128;2023-10-08T07:38:51;15.60;99.90
21090;DHT22;10703;51.020;6.128;2023-10-08T07:41:18;16.30;99.90
21090;DHT22;10703;51.020;6.128;2023-10-08T07:43:50;17.30;99.90
21090;DHT22;10703;51.020;6.128;2023-10-08T07:46:22;16.70;99.90
21090;DHT22;10703;51.020;6.128;2023-10-08T07:48:49;16.90;99.90
21090;DHT22;10703;51.020;6.128;2023-10-08T07:51:17;17.10;99.90
21090;DHT22;10703;51.020;6.128;2023-10-08T07:53:52;17.50;99.90
21090;DHT22;10703;51.020;6.128;2023-10-08T07:56:25;17.80;99.90
21090;DHT22;10703;51.020;6.128;2023-10-08T07:58:53;17.80;99.90
21090;DHT22;10703;51.020;6.128;2023-10-08T08:01:23;18.00;99.90
21090;DHT22;10703;51.020;6.128;2023-10-08T08:03:51;18.10;99.90
21090;DHT22;10703;51.020;6.128;2023-10-08T08:06:18;19.60;99.90
21090;DHT22;10703;51.020;6.128;2023-10-08T08:08:45;18.50;99.90
21090;DHT22;10703;51.020;6.128;2023-10-08T08:11:11;19.00;99.90
21090;DHT22;10703;51.020;6.128;2023-10-08T08:13:39;19.00;99.90
21090;DHT22;10703;51.020;6.128;2023-10-08T08:16:11;19.30;99.90
21090;DHT22;10703;51.020;6.128;2023-10-08T08:18:46;19.70;99.90
21090;DHT22;10703;51.020;6.128;2023-10-08T08:21:16;19.80;99.90
21090;DHT22;10703;51.020;6.128;2023-10-08T08:23:44;20.10;99.90
21090;DHT22;10703;51.020;6.128;2023-10-08T08:26:23;20.10;99.90
21090;DHT22;10703;51.020;6.128;2023-10-08T08:28:57;20.10;99.90
21090;DHT22;10703;51.020;6.128;2023-10-08T08:31:24;20.60;99.90
21090;DHT22;10703;51.020;6.128;2023-10-08T08:33:52;20.70;99.90
21090;DHT22;10703;51.020;6.128;2023-10-08T08:36:23;21.90;99.90
21090;DHT22;10703;51.020;6.128;2023-10-08T08:38:51;21.30;99.90
21090;DHT22;10703;51.020;6.128;2023-10-08T08:41:18;22.50;99.90
21090;DHT22;10703;51.020;6.128;2023-10-08T08:43:52;21.30;99.90
21090;DHT22;10703;51.020;6.128;2023-10-08T08:46:32;21.40;99.90
21090;DHT22;10703;51.020;6.128;2023-10-08T08:49:06;21.30;99.90
21090;DHT22;10703;51.020;6.128;2023-10-08T08:51:35;22.40;99.90
21090;DHT22;10703;51.020;6.128;2023-10-08T08:54:02;21.70;99.90
21090;DHT22;10703;51.020;6.128;2023-10-08T08:56:37;21.90;99.90
21090;DHT22;10703;51.020;6.128;2023-10-08T08:59:05;22.10;99.90
21090;DHT22;10703;51.020;6.128;2023-10-08T09:01:32;21.90;99.90
21090;DHT22;10703;51.020;6.128;2023-10-08T09:04:01;23.60;99.90
21090;DHT22;10703;51.020;6.128;2023-10-08T09:06:28;22.10;99.90
21090;DHT22;10703;51.020;6.128;2023-10-08T09:08:55;22.00;99.90
21090;DHT22;10703;51.020;6.128;2023-10-08T09:11:42;23.90;99.90
21090;DHT22;10703;51.020;6.128;2023-10-08T09:14:09;23.60;99.90
21090;DHT22;10703;51.020;6.128;2023-10-08T09:16:37;22.60;99.90
21090;DHT22;10703;51.020;6.128;2023-10-08T09:19:04;21.60;99.90
21090;DHT22;10703;51.020;6.128;2023-10-08T09:21:38;21.50;99.90
21090;DHT22;10703;51.020;6.128;2023-10-08T09:24:05;21.50;99.90
21090;DHT22;10703;51.020;6.128;2023-10-08T09:26:37;21.30;99.90
21090;DHT22;10703;51.020;6.128;2023-10-08T09:29:07;21.30;99.90
21090;DHT22;10703;51.020;6.128;2023-10-08T09:31:34;21.20;99.90
21090;DHT22;10703;51.020;6.128;2023-10-08T09:34:03;22.20;99.90
21090;DHT22;10703;51.020;6.128;2023-10-08T09:36:30;20.90;99.90
21090;DHT22;10703;51.020;6.128;2023-10-08T09:39:02;22.90;99.90
21090;DHT22;10703;51.020;6.128;2023-10-08T09:41:32;20.70;99.90
21090;DHT22;10703;51.020;6.128;2023-10-08T09:43:59;21.60;99.90
21090;DHT22;10703;51.020;6.128;2023-10-08T09:46:30;22.70;99.90
21090;DHT22;10703;51.020;6.128;2023-10-08T09:49:01;24.10;99.90
21090;DHT22;10703;51.020;6.128;2023-10-08T09:51:29;23.00;99.90
21090;DHT22;10703;51.020;6.128;2023-10-08T09:56:31;24.00;99.90
21090;DHT22;10703;51.020;6.128;2023-10-08T09:58:59;24.30;99.90
21090;DHT22;10703;51.020;6.128;2023-10-08T10:01:27;25.60;99.90
21090;DHT22;10703;51.020;6.128;2023-10-08T10:03:55;24.90;99.90
21090;DHT22;10703;51.020;6.128;2023-10-08T10:06:22;25.40;99.90
21090;DHT22;10703;51.020;6.128;2023-10-08T10:08:49;25.80;99.90
21090;DHT22;10703;51.020;6.128;2023-10-08T10:11:16;25.70;99.90
21090;DHT22;10703;51.020;6.128;2023-10-08T10:13:45;26.30;99.90
21090;DHT22;10703;51.020;6.128;2023-10-08T10:16:21;26.70;99.90
21090;DHT22;10703;51.020;6.128;2023-10-08T10:18:49;27.10;99.90
21090;DHT22;10703;51.020;6.128;2023-10-08T10:23:47;27.70;99.90
21090;DHT22;10703;51.020;6.128;2023-10-08T10:26:33;28.00;99.90
21090;DHT22;10703;51.020;6.128;2023-10-08T10:34:12;28.60;99.90
21090;DHT22;10703;51.020;6.128;2023-10-08T10:36:40;29.00;99.60
21090;DHT22;10703;51.020;6.128;2023-10-08T10:39:09;28.50;99.90
21090;DHT22;10703;51.020;6.128;2023-10-08T10:42:06;28.80;98.90
21090;DHT22;10703;51.020;6.128;2023-10-08T10:44:45;29.70;99.00
21090;DHT22;10703;51.020;6.128;2023-10-08T10:47:13;29.00;98.60
21090;DHT22;10703;51.020;6.128;2023-10-08T10:49:43;28.30;99.30
21090;DHT22;10703;51.020;6.128;2023-10-08T10:52:24;28.80;99.10
21090;DHT22;10703;51.020;6.128;2023-10-08T10:55:01;28.90;98.50
21090;DHT22;10703;51.020;6.128;2023-10-08T10:57:52;29.10;98.40
21090;DHT22;10703;51.020;6.128;2023-10-08T11:00:25;28.50;98.80
21090;DHT22;10703;51.020;6.128;2023-10-08T11:03:02;28.40;98.70
21090;DHT22;10703;51.020;6.128;2023-10-08T11:05:34;28.50;99.50
21090;DHT22;10703;51.020;6.128;2023-10-08T11:08:05;29.70;98.50
21090;DHT22;10703;51.020;6.128;2023-10-08T11:10:38;29.80;98.90
21090;DHT22;10703;51.020;6.128;2023-10-08T11:13:05;30.00;98.20
21090;DHT22;10703;51.020;6.128;2023-10-08T11:15:42;30.30;97.10
21090;DHT22;10703;51.020;6.128;2023-10-08T11:18:16;30.40;96.80
21090;DHT22;10703;51.020;6.128;2023-10-08T11:20:44;30.70;96.30
21090;DHT22;10703;51.020;6.128;2023-10-08T11:23:37;30.20;96.60
21090;DHT22;10703;51.020;6.128;2023-10-08T11:26:05;30.20;96.90
21090;DHT22;10703;51.020;6.128;2023-10-08T11:28:34;30.70;96.70
21090;DHT22;10703;51.020;6.128;2023-10-08T11:31:02;30.20;96.50
21090;DHT22;10703;51.020;6.128;2023-10-08T11:33:39;29.50;97.00
21090;DHT22;10703;51.020;6.128;2023-10-08T11:36:08;28.20;98.50
21090;DHT22;10703;51.020;6.128;2023-10-08T11:38:45;26.90;99.90
21090;DHT22;10703;51.020;6.128;2023-10-08T11:41:15;26.00;99.90
21090;DHT22;10703;51.020;6.128;2023-10-08T11:43:52;26.60;99.90
21090;DHT22;10703;51.020;6.128;2023-10-08T11:46:32;25.80;99.90
21090;DHT22;10703;51.020;6.128;2023-10-08T11:49:10;27.20;99.90
21090;DHT22;10703;51.020;6.128;2023-10-08T11:51:45;26.90;99.90
21090;DHT22;10703;51.020;6.128;2023-10-08T11:54:12;27.70;99.90
21090;DHT22;10703;51.020;6.128;2023-10-08T11:56:39;27.80;99.70
21090;DHT22;10703;51.020;6.128;2023-10-08T11:59:06;28.20;99.50
21090;DHT22;10703;51.020;6.128;2023-10-08T12:01:36;27.90;99.80
21090;DHT22;10703;51.020;6.128;2023-10-08T12:04:04;29.30;99.90
21090;DHT22;10703;51.020;6.128;2023-10-08T12:06:32;27.50;99.80
21090;DHT22;10703;51.020;6.128;2023-10-08T12:08:59;27.00;99.90
21090;DHT22;10703;51.020;6.128;2023-10-08T12:11:26;27.60;99.90
21090;DHT22;10703;51.020;6.128;2023-10-08T12:13:58;26.90;99.90
21090;DHT22;10703;51.020;6.128;2023-10-08T12:16:27;27.40;99.90
21090;DHT22;10703;51.020;6.128;2023-10-08T12:18:56;27.70;99.90
21090;DHT22;10703;51.020;6.128;2023-10-08T12:21:30;28.60;99.50
21090;DHT22;10703;51.020;6.128;2023-10-08T12:23:57;29.30;99.10
21090;DHT22;10703;51.020;6.128;2023-10-08T12:26:24;29.40;98.40
21090;DHT22;10703;51.020;6.128;2023-10-08T12:28:52;30.00;97.20
21090;DHT22;10703;51.020;6.128;2023-10-08T12:31:21;31.00;95.60
21090;DHT22;10703;51.020;6.128;2023-10-08T12:33:52;31.40;96.80
21090;DHT22;10703;51.020;6.128;2023-10-08T12:36:20;31.10;95.40
21090;DHT22;10703;51.020;6.128;2023-10-08T12:38:50;31.30;96.20
21090;DHT22;10703;51.020;6.128;2023-10-08T12:41:27;30.50;95.40
21090;DHT22;10703;51.020;6.128;2023-10-08T12:43:54;30.90;96.30
21090;DHT22;10703;51.020;6.128;2023-10-08T12:46:21;30.60;96.40
21090;DHT22;10703;51.020;6.128;2023-10-08T12:48:51;30.90;95.60
21090;DHT22;10703;51.020;6.128;2023-10-08T12:51:24;31.20;94.70
21090;DHT22;10703;51.020;6.128;2023-10-08T12:53:52;30.70;95.50
21090;DHT22;10703;51.020;6.128;2023-10-08T12:56:26;30.10;95.80
21090;DHT22;10703;51.020;6.128;2023-10-08T12:59:02;30.30;95.70
21090;DHT22;10703;51.020;6.128;2023-10-08T13:01:35;30.10;95.70
21090;DHT22;10703;51.020;6.128;2023-10-08T13:04:03;29.20;96.10
21090;DHT22;10703;51.020;6.128;2023-10-08T13:06:34;28.50;97.20
21090;DHT22;10703;51.020;6.128;2023-10-08T13:09:04;28.10;97.90
21090;DHT22;10703;51.020;6.128;2023-10-08T13:11:39;27.50;99.10
21090;DHT22;10703;51.020;6.128;2023-10-08T13:14:06;27.80;99.40
21090;DHT22;10703;51.020;6.128;2023-10-08T13:16:33;27.20;98.70
21090;DHT22;10703;51.020;6.128;2023-10-08T13:19:04;27.70;98.40
21090;DHT22;10703;51.020;6.128;2023-10-08T13:21:34;28.00;98.40
21090;DHT22;10703;51.020;6.128;2023-10-08T13:24:04;28.20;97.90
21090;DHT22;10703;51.020;6.128;2023-10-08T13:26:35;28.20;97.80
21090;DHT22;10703;51.020;6.128;2023-10-08T13:29:04;28.40;97.90
21090;DHT22;10703;51.020;6.128;2023-10-08T13:31:32;28.50;97.90
21090;DHT22;10703;51.020;6.128;2023-10-08T13:34:03;28.50;98.30
21090;DHT22;10703;51.020;6.128;2023-10-08T13:36:38;28.80;97.50
21090;DHT22;10703;51.020;6.128;2023-10-08T13:39:06;29.90;96.90
21090;DHT22;10703;51.020;6.128;2023-10-08T13:41:37;30.90;95.70
21090;DHT22;10703;51.020;6.128;2023-10-08T13:44:05;31.50;95.10
21090;DHT22;10703;51.020;6.128;2023-10-08T13:46:32;31.70;94.70
21090;DHT22;10703;51.020;6.128;2023-10-08T13:49:03;31.80;94.70
21090;DHT22;10703;51.020;6.128;2023-10-08T13:51:32;31.50;95.00
21090;DHT22;10703;51.020;6.128;2023-10-08T13:54:01;31.40;95.00
21090;DHT22;10703;51.020;6.128;2023-10-08T13:56:31;30.60;95.40
21090;DHT22;10703;51.020;6.128;2023-10-08T13:59:01;30.70;95.40
21090;DHT22;10703;51.020;6.128;2023-10-08T14:01:46;29.80;95.80
21090;DHT22;10703;51.020;6.128;2023-10-08T14:04:14;29.60;97.50
21090;DHT22;10703;51.020;6.128;2023-10-08T14:06:47;29.40;97.60
21090;DHT22;10703;51.020;6.128;2023-10-08T14:09:18;28.90;97.10
21090;DHT22;10703;51.020;6.128;2023-10-08T14:11:57;29.00;98.00
21090;DHT22;10703;51.020;6.128;2023-10-08T14:14:24;28.90;97.70
21090;DHT22;10703;51.020;6.128;2023-10-08T14:16:56;28.50;97.50
21090;DHT22;10703;51.020;6.128;2023-10-08T14:19:29;28.60;97.60
21090;DHT22;10703;51.020;6.128;2023-10-08T14:22:06;27.70;98.40
21090;DHT22;10703;51.020;6.128;2023-10-08T14:24:35;29.00;99.50
21090;DHT22;10703;51.020;6.128;2023-10-08T14:27:05;27.80;99.90
21090;DHT22;10703;51.020;6.128;2023-10-08T14:29:38;28.50;99.80
21090;DHT22;10703;51.020;6.128;2023-10-08T14:32:07;29.00;98.30
21090;DHT22;10703;51.020;6.128;2023-10-08T14:34:37;29.10;98.40
21090;DHT22;10703;51.020;6.128;2023-10-08T14:37:13;29.90;97.90
21090;DHT22;10703;51.020;6.128;2023-10-08T14:39:58;30.40;97.40
21090;DHT22;10703;51.020;6.128;2023-10-08T14:42:44;30.80;97.00
21090;DHT22;10703;51.020;6.128;2023-10-08T14:45:27;30.20;97.40
21090;DHT22;10703;51.020;6.128;2023-10-08T14:47:58;29.90;97.30
21090;DHT22;10703;51.020;6.128;2023-10-08T14:50:25;29.20;97.90
21090;DHT22;10703;51.020;6.128;2023-10-08T14:52:58;27.80;99.10
21090;DHT22;10703;51.020;6.128;2023-10-08T14:55:32;26.80;99.90
21090;DHT22;10703;51.020;6.128;2023-10-08T14:58:02;27.50;99.90
21090;DHT22;10703;51.020;6.128;2023-10-08T15:00:36;25.50;99.90
21090;DHT22;10703;51.020;6.128;2023-10-08T15:03:04;25.10;99.90
21090;DHT22;10703;51.020;6.128;2023-10-08T15:05:31;25.40;99.90
21090;DHT22;10703;51.020;6.128;2023-10-08T15:07:58;26.20;99.90
21090;DHT22;10703;51.020;6.128;2023-10-08T15:10:25;25.00;99.90
21090;DHT22;10703;51.020;6.128;2023-10-08T15:12:52;24.80;99.90
21090;DHT22;10703;51.020;6.128;2023-10-08T15:15:20;26.20;99.90
21090;DHT22;10703;51.020;6.128;2023-10-08T15:17:49;25.70;99.90
21090;DHT22;10703;51.020;6.128;2023-10-08T15:20:17;24.50;99.90
21090;DHT22;10703;51.020;6.128;2023-10-08T15:22:45;24.50;99.90
21090;DHT22;10703;51.020;6.128;2023-10-08T15:25:14;24.40;99.90
21090;DHT22;10703;51.020;6.128;2023-10-08T15:27:41;24.30;99.90
21090;DHT22;10703;51.020;6.128;2023-10-08T15:30:12;24.80;99.90
21090;DHT22;10703;51.020;6.128;2023-10-08T15:32:43;24.30;99.90
21090;DHT22;10703;51.020;6.128;2023-10-08T15:35:16;24.60;99.90
21090;DHT22;10703;51.020;6.128;2023-10-08T15:37:47;24.60;99.90
21090;DHT22;10703;51.020;6.128;2023-10-08T15:40:14;25.30;99.90
21090;DHT22;10703;51.020;6.128;2023-10-08T15:42:50;24.80;99.90
21090;DHT22;10703;51.020;6.128;2023-10-08T15:45:18;24.90;99.90
21090;DHT22;10703;51.020;6.128;2023-10-08T15:47:47;25.20;99.90
21090;DHT22;10703;51.020;6.128;2023-10-08T15:50:13;26.00;99.90
21090;DHT22;10703;51.020;6.128;2023-10-08T15:52:40;25.10;99.90
21090;DHT22;10703;51.020;6.128;2023-10-08T15:55:07;24.50;99.90
21090;DHT22;10703;51.020;6.128;2023-10-08T15:57:34;23.80;99.90
21090;DHT22;10703;51.020;6.128;2023-10-08T16:00:01;23.70;99.90
21090;DHT22;10703;51.020;6.128;2023-10-08T16:02:29;23.40;99.90
21090;DHT22;10703;51.020;6.128;2023-10-08T16:04:56;23.30;99.90
21090;DHT22;10703;51.020;6.128;2023-10-08T16:07:23;22.50;99.90
21090;DHT22;10703;51.020;6.128;2023-10-08T16:09:49;22.40;99.90
21090;DHT22;10703;51.020;6.128;2023-10-08T16:12:16;22.40;99.90
21090;DHT22;10703;51.020;6.128;2023-10-08T16:14:44;22.10;99.90